createdAt,value
2019-02-24T00:03:43.076Z,9.00
2019-02-24T00:08:46.761Z,8.43
2019-02-24T00:13:50.620Z,8.93
2019-02-24T00:18:55.300Z,10.27
2019-02-24T00:23:59.212Z,11.70
2019-02-24T00:29:05.602Z,10.90
2019-02-24T00:34:09.452Z,11.23
2019-02-24T00:39:13.259Z,10.87
2019-02-24T00:44:17.011Z,10.47
2019-02-24T00:49:20.810Z,9.77
2019-02-24T00:54:24.501Z,9.37
2019-02-24T00:59:28.270Z,9.10
2019-02-24T01:04:32.223Z,8.20
2019-02-24T01:09:36.026Z,9.33
2019-02-24T01:14:39.806Z,8.10
2019-02-24T01:19:43.569Z,9.77
2019-02-24T01:24:47.258Z,7.70
2019-02-24T01:29:50.976Z,7.50
2019-02-24T01:34:56.655Z,7.50
2019-02-24T01:40:00.250Z,7.90
2019-02-24T01:45:04.118Z,7.57
2019-02-24T01:50:08.236Z,7.97
2019-02-24T01:55:11.949Z,7.50
2019-02-24T02:00:15.809Z,6.70
2019-02-24T02:05:19.607Z,6.80
2019-02-24T02:10:23.358Z,6.63
2019-02-24T02:15:27.082Z,7.10
2019-02-24T02:20:30.954Z,6.67
2019-02-24T02:25:34.670Z,6.17
2019-02-24T02:30:38.340Z,6.80
2019-02-24T02:35:44.459Z,6.57
2019-02-24T02:40:48.228Z,7.13
2019-02-24T02:45:51.939Z,6.30
2019-02-24T02:50:55.797Z,6.63
2019-02-24T02:55:59.494Z,6.33
2019-02-24T03:01:03.177Z,6.53
2019-02-24T03:06:15.138Z,6.23
2019-02-24T03:11:18.802Z,5.90
2019-02-24T03:16:26.037Z,5.67
2019-02-24T03:21:29.856Z,5.90
2019-02-24T03:26:33.868Z,6.20
2019-02-24T03:31:37.488Z,6.37
2019-02-24T03:36:41.141Z,5.90
2019-02-24T03:41:44.787Z,6.20
2019-02-24T03:46:48.509Z,5.37
2019-02-24T03:51:52.182Z,5.83
2019-02-24T03:56:55.914Z,5.37
2019-02-24T04:01:59.634Z,5.90
2019-02-24T04:07:03.275Z,5.73
2019-02-24T04:12:07.025Z,5.27
2019-02-24T04:17:10.810Z,6.10
2019-02-24T04:22:14.508Z,5.40
2019-02-24T04:27:18.227Z,5.63
2019-02-24T04:32:21.991Z,5.40
2019-02-24T04:37:25.773Z,5.87
2019-02-24T04:42:29.455Z,5.93
2019-02-24T04:47:33.129Z,5.23
2019-02-24T04:52:36.837Z,5.47
2019-02-24T04:57:40.621Z,6.40
2019-02-24T05:02:44.345Z,6.03
2019-02-24T05:07:48.092Z,5.83
2019-02-24T05:12:51.777Z,6.87
2019-02-24T05:17:55.467Z,6.70
2019-02-24T05:22:59.185Z,6.67
2019-02-24T05:28:02.896Z,7.30
2019-02-24T05:33:06.606Z,6.70
2019-02-24T05:38:10.446Z,7.00
2019-02-24T05:43:14.174Z,7.50
2019-02-24T05:48:17.929Z,8.80
2019-02-24T05:53:21.893Z,8.53
2019-02-24T05:58:25.607Z,8.40
2019-02-24T06:03:29.416Z,7.70
2019-02-24T06:08:33.165Z,8.20
2019-02-24T06:13:37.959Z,8.07
2019-02-24T06:18:41.752Z,7.50
2019-02-24T06:23:45.973Z,7.33
2019-02-24T06:28:49.758Z,7.40
2019-02-24T06:33:53.795Z,7.50
2019-02-24T06:38:58.000Z,6.80
2019-02-24T06:44:02.054Z,6.67
2019-02-24T06:49:06.316Z,7.40
2019-02-24T06:54:10.162Z,7.00
2019-02-24T06:59:14.298Z,7.20
2019-02-24T07:04:18.346Z,8.10
2019-02-24T07:09:22.664Z,8.20
2019-02-24T07:14:27.177Z,7.50
2019-02-24T07:19:30.940Z,8.60
2019-02-24T07:24:34.880Z,8.67
2019-02-24T07:29:38.878Z,8.47
2019-02-24T07:34:43.330Z,8.83
2019-02-24T07:39:48.858Z,8.27
2019-02-24T07:44:53.249Z,7.97
2019-02-24T07:49:57.735Z,8.57
2019-02-24T07:55:01.954Z,8.40
2019-02-24T08:00:06.999Z,8.30
2019-02-24T08:05:11.049Z,9.10
2019-02-24T08:10:15.412Z,8.60
2019-02-24T08:15:20.462Z,9.33
2019-02-24T08:20:24.777Z,9.03
2019-02-24T08:25:29.080Z,9.20
2019-02-24T08:30:41.640Z,9.27
2019-02-24T08:35:44.531Z,8.40
2019-02-24T08:40:48.800Z,9.30
2019-02-24T08:45:53.365Z,9.70
2019-02-24T08:50:57.724Z,10.30
2019-02-24T08:56:01.612Z,10.30
2019-02-24T09:01:05.420Z,9.87
2019-02-24T09:06:09.816Z,10.80
2019-02-24T09:11:13.916Z,9.90
2019-02-24T09:16:17.709Z,11.13
2019-02-24T09:21:21.825Z,11.50
2019-02-24T09:26:25.608Z,14.40
2019-02-24T09:31:29.427Z,13.30
2019-02-24T09:36:33.126Z,14.23
2019-02-24T09:41:36.837Z,13.90
2019-02-24T09:46:40.747Z,13.00
2019-02-24T09:51:46.043Z,11.90
2019-02-24T09:56:49.766Z,12.33
2019-02-24T10:01:53.499Z,12.03
2019-02-24T10:06:57.301Z,11.23
2019-02-24T10:12:02.903Z,10.20
2019-02-24T10:17:06.678Z,12.23
2019-02-24T10:22:10.406Z,9.60
2019-02-24T10:27:14.283Z,10.50
2019-02-24T10:32:18.193Z,10.30
2019-02-24T10:37:22.033Z,10.13
2019-02-24T10:42:26.294Z,9.97
2019-02-24T10:47:31.893Z,9.50
2019-02-24T10:52:35.654Z,10.13
2019-02-24T10:57:39.320Z,10.00
2019-02-24T11:02:43.137Z,9.27
2019-02-24T11:07:47.550Z,9.30
2019-02-24T11:12:51.286Z,9.10
2019-02-24T11:17:55.313Z,9.50
2019-02-24T11:22:59.122Z,9.17
2019-02-24T11:28:04.089Z,9.57
2019-02-24T11:33:08.539Z,11.90
2019-02-24T11:38:12.317Z,11.50
2019-02-24T11:43:16.127Z,14.47
2019-02-24T11:48:23.937Z,15.27
2019-02-24T11:53:27.713Z,16.10
2019-02-24T11:58:31.499Z,15.00
2019-02-24T12:03:35.244Z,15.20
2019-02-24T12:08:41.594Z,15.20
2019-02-24T12:13:45.466Z,14.73
2019-02-24T12:18:49.187Z,14.53
2019-02-24T12:23:53.003Z,14.10
2019-02-24T12:28:56.695Z,13.00
2019-02-24T12:34:01.023Z,14.00
2019-02-24T12:39:09.477Z,13.10
2019-02-24T12:44:14.809Z,14.60
2019-02-24T12:49:18.963Z,13.70
2019-02-24T12:54:22.868Z,15.20
2019-02-24T12:59:26.667Z,15.27
2019-02-24T13:04:32.194Z,14.83
2019-02-24T13:09:35.978Z,14.43
2019-02-24T13:14:40.844Z,15.07
2019-02-24T13:19:44.670Z,15.10
2019-02-24T13:24:48.614Z,14.83
2019-02-24T13:29:52.456Z,13.30
2019-02-24T13:34:56.285Z,15.80
2019-02-24T13:40:00.007Z,15.27
2019-02-24T13:45:04.134Z,16.17
2019-02-24T13:50:07.959Z,21.57
2019-02-24T13:55:11.918Z,26.00
2019-02-24T14:00:16.613Z,28.47
2019-02-24T14:05:20.456Z,27.10
2019-02-24T14:10:24.550Z,25.07
2019-02-24T14:15:28.426Z,23.17
2019-02-24T14:20:32.211Z,20.47
2019-02-24T14:25:36.022Z,20.10
2019-02-24T14:30:39.833Z,17.27
2019-02-24T14:35:43.621Z,17.17
2019-02-24T14:40:49.603Z,16.50
2019-02-24T14:45:53.905Z,19.20
2019-02-24T14:50:58.185Z,19.60
2019-02-24T14:56:01.855Z,17.87
2019-02-24T15:01:05.785Z,17.97
2019-02-24T15:06:09.851Z,16.37
2019-02-24T15:11:13.606Z,15.33
2019-02-24T15:16:17.660Z,15.30
2019-02-24T15:21:21.383Z,13.50
2019-02-24T15:26:25.107Z,13.50
2019-02-24T15:31:28.964Z,12.27
2019-02-24T15:36:34.430Z,10.83
2019-02-24T15:41:38.237Z,10.60
2019-02-24T15:46:42.121Z,10.67
2019-02-24T15:51:45.940Z,10.40
2019-02-24T15:56:49.664Z,9.87
2019-02-24T16:01:53.502Z,10.20
2019-02-24T16:06:57.536Z,9.63
2019-02-24T16:12:01.403Z,9.03
2019-02-24T16:17:05.425Z,9.77
2019-02-24T16:22:09.136Z,8.53
2019-02-24T16:27:15.525Z,9.20
2019-02-24T16:32:19.270Z,8.90
2019-02-24T16:37:23.236Z,9.73
2019-02-24T16:42:27.510Z,9.07
2019-02-24T16:47:31.302Z,9.13
2019-02-24T16:52:35.187Z,8.80
2019-02-24T16:57:38.915Z,8.80
2019-02-24T17:02:42.880Z,9.60
2019-02-24T17:07:46.713Z,8.50
2019-02-24T17:12:50.656Z,7.90
2019-02-24T17:17:54.553Z,7.93
2019-02-24T17:22:58.357Z,7.80
2019-02-24T17:28:02.311Z,9.40
2019-02-24T17:33:06.122Z,9.30
2019-02-24T17:38:11.134Z,7.93
2019-02-24T17:43:14.944Z,8.30
2019-02-24T17:48:19.775Z,8.33
2019-02-24T17:53:23.737Z,9.10
2019-02-24T17:58:31.195Z,9.67
2019-02-24T18:03:39.464Z,10.07
2019-02-24T18:08:42.173Z,9.23
2019-02-24T18:13:51.031Z,10.63
2019-02-24T18:18:55.903Z,9.93
2019-02-24T18:23:59.879Z,9.90
2019-02-24T18:29:03.776Z,10.37
2019-02-24T18:34:07.799Z,10.43
2019-02-24T18:39:11.932Z,10.27
2019-02-24T18:44:16.841Z,10.73
2019-02-24T18:49:22.065Z,10.63
2019-02-24T18:54:34.406Z,10.70
2019-02-24T18:59:31.456Z,10.50
2019-02-24T19:04:35.241Z,11.40
2019-02-24T19:09:39.094Z,10.57
2019-02-24T19:14:42.926Z,11.00
2019-02-24T19:19:47.986Z,10.80
2019-02-24T19:24:52.049Z,11.10
2019-02-24T19:30:00.359Z,11.63
2019-02-24T19:35:12.132Z,11.03
2019-02-24T19:40:17.723Z,11.43
2019-02-24T19:45:24.227Z,10.83
2019-02-24T19:50:28.124Z,10.53
2019-02-24T19:55:31.840Z,12.00
2019-02-24T20:00:44.252Z,12.10
2019-02-24T20:05:50.146Z,12.07
2019-02-24T20:10:54.150Z,12.10
2019-02-24T20:15:58.204Z,13.57
2019-02-24T20:21:02.066Z,12.90
2019-02-24T20:26:05.995Z,12.90
2019-02-24T20:31:09.850Z,13.43
2019-02-24T20:36:14.354Z,13.60
2019-02-24T20:41:20.080Z,12.33
2019-02-24T20:46:24.039Z,12.07
2019-02-24T20:51:32.150Z,13.57
2019-02-24T20:56:36.001Z,13.10
2019-02-24T21:01:41.389Z,13.07
2019-02-24T21:06:45.677Z,13.13
2019-02-24T21:11:51.652Z,11.77
2019-02-24T21:16:56.619Z,13.30
2019-02-24T21:22:00.811Z,12.50
2019-02-24T21:27:10.062Z,13.03
2019-02-24T21:32:17.022Z,12.70
2019-02-24T21:37:22.950Z,12.50
2019-02-24T21:42:26.671Z,12.80
2019-02-24T21:47:30.347Z,13.63
2019-02-24T21:52:34.147Z,13.70
2019-02-24T21:57:37.865Z,14.27
2019-02-24T22:02:43.558Z,12.70
2019-02-24T22:07:47.359Z,12.73
2019-02-24T22:12:52.859Z,13.17
2019-02-24T22:17:56.562Z,11.53
2019-02-24T22:23:00.594Z,11.00
2019-02-24T22:28:04.346Z,9.97
2019-02-24T22:33:08.089Z,10.93
2019-02-24T22:38:11.811Z,10.83
2019-02-24T22:43:18.441Z,10.47
2019-02-24T22:48:22.278Z,10.83
2019-02-24T22:53:25.963Z,10.17
2019-02-24T22:58:29.713Z,9.00
2019-02-24T23:03:44.808Z,9.37
2019-02-24T23:08:48.537Z,9.37
2019-02-24T23:13:52.175Z,9.40
2019-02-24T23:18:55.897Z,8.93
2019-02-24T23:23:59.596Z,9.17
2019-02-24T23:29:03.255Z,8.00
2019-02-24T23:34:06.961Z,8.70
2019-02-24T23:39:15.132Z,8.47
2019-02-24T23:44:18.886Z,8.80
2019-02-24T23:49:22.645Z,8.00
2019-02-24T23:54:26.328Z,8.40
2019-02-24T23:59:30.079Z,8.60
